Time;durP1;ratioP1;P1;durP2;ratioP2;P2;SDS_P1;SDS_P2;PMS_P1;PMS_P2;Temp;Humidity;BMP_temperature;BMP_pressure;BME280_temperature;BME280_humidity;BME280_pressure;Samples;Min_cycle;Max_cycle;Signal;HPM_P1;HPM_P2
2023/08/04 00:02:15;;;;;;;4.97;4.28;;;;;;;30.75;40.21;98302.22;5090391;28;20463;-71
2023/08/04 00:04:41;;;;;;;6.75;4.30;;;;;;;30.77;39.98;98311.63;5090470;28;20055;-71
2023/08/04 00:07:06;;;;;;;5.50;4.30;;;;;;;30.75;40.11;98305.72;5090634;28;20043;-72
2023/08/04 00:09:32;;;;;;;5.80;3.85;;;;;;;30.73;40.37;98302.47;5090712;28;20032;-72
2023/08/04 00:11:57;;;;;;;5.13;3.85;;;;;;;30.70;40.31;98305.69;5057075;28;20028;-72
2023/08/04 00:14:23;;;;;;;5.57;4.05;;;;;;;30.72;40.57;98308.13;5073792;28;20032;-72
2023/08/04 00:16:48;;;;;;;5.00;3.80;;;;;;;30.69;40.57;98306.75;5091546;28;20035;-72
2023/08/04 00:19:14;;;;;;;7.05;4.38;;;;;;;30.67;40.57;98308.91;5074169;28;20471;-72
2023/08/04 00:21:39;;;;;;;6.88;4.15;;;;;;;30.63;40.41;98307.78;5073444;28;20028;-72
2023/08/04 00:24:05;;;;;;;5.38;4.00;;;;;;;30.60;40.37;98305.59;5074201;28;20032;-72
2023/08/04 00:26:32;;;;;;;6.47;4.28;;;;;;;30.65;40.75;98319.13;5090745;28;20024;-72
2023/08/04 00:28:57;;;;;;;4.80;4.07;;;;;;;30.62;40.59;98315.06;5057358;28;20051;-71
2023/08/04 00:31:23;;;;;;;5.13;4.32;;;;;;;30.62;40.44;98316.94;5057226;28;20411;-71
2023/08/04 00:33:48;;;;;;;6.30;4.00;;;;;;;30.62;40.56;98323.13;5056860;28;20506;-72
2023/08/04 00:36:14;;;;;;;6.38;4.25;;;;;;;30.61;40.53;98318.81;5073736;28;20040;-73
2023/08/04 00:38:39;;;;;;;4.38;3.85;;;;;;;30.60;40.53;98316.38;5073869;28;20128;-73
2023/08/04 00:41:05;;;;;;;5.85;4.32;;;;;;;30.59;40.19;98318.25;5089720;28;20040;-72
2023/08/04 00:43:30;;;;;;;5.38;3.90;;;;;;;30.56;40.31;98315.28;5090293;28;20078;-72
2023/08/04 00:45:56;;;;;;;4.47;3.85;;;;;;;30.54;40.58;98310.16;5073541;28;20024;-71
2023/08/04 00:48:21;;;;;;;5.85;4.00;;;;;;;30.56;40.79;98317.97;5052073;28;20035;-72
2023/08/04 00:50:47;;;;;;;5.97;4.30;;;;;;;30.56;40.52;98317.97;5088230;28;20028;-73
2023/08/04 00:53:13;;;;;;;5.68;4.22;;;;;;;30.51;40.92;98307.16;5106903;28;20103;-72
2023/08/04 00:55:39;;;;;;;4.78;4.20;;;;;;;30.52;40.68;98312.31;5072898;28;20080;-72
2023/08/04 00:58:04;;;;;;;4.65;3.90;;;;;;;30.52;40.40;98311.47;5075244;28;20044;-72
2023/08/04 01:00:30;;;;;;;4.90;4.10;;;;;;;30.51;40.62;98309.88;5093191;28;20479;-71
2023/08/04 01:02:55;;;;;;;4.72;3.92;;;;;;;30.51;40.44;98312.56;5091218;28;20028;-71
2023/08/04 01:05:21;;;;;;;5.15;4.10;;;;;;;30.48;40.63;98303.91;5092771;28;20052;-73
2023/08/04 01:07:52;;;;;;;5.38;4.20;;;;;;;30.47;40.79;98305.00;5092853;28;20478;-72
2023/08/04 01:10:27;;;;;;;4.88;4.28;;;;;;;30.48;40.22;98303.91;5094407;28;20027;-73
2023/08/04 01:13:05;;;;;;;7.22;4.30;;;;;;;30.47;40.41;98299.59;5075595;28;20395;-72
2023/08/04 01:15:31;;;;;;;4.88;4.00;;;;;;;30.47;40.79;98298.78;5093586;28;20043;-72
2023/08/04 01:17:57;;;;;;;5.07;3.88;;;;;;;30.45;40.23;98306.31;5076779;28;20048;-72
2023/08/04 01:20:23;;;;;;;5.65;4.07;;;;;;;30.41;40.40;98297.09;5093454;28;20028;-72
2023/08/04 01:22:49;;;;;;;5.00;3.90;;;;;;;30.38;40.78;98287.69;5076398;28;20410;-71
2023/08/04 01:25:14;;;;;;;5.65;4.55;;;;;;;30.40;40.85;98295.50;5110664;28;20039;-71
2023/08/04 01:27:44;;;;;;;7.25;4.07;;;;;;;30.35;40.31;98298.94;5093263;28;20459;-72
2023/08/04 01:30:23;;;;;;;8.13;4.10;;;;;;;30.35;40.51;98293.53;5093290;28;20032;-72
2023/08/04 01:32:48;;;;;;;4.93;4.18;;;;;;;30.33;40.48;98293.00;5076520;28;20483;-72
2023/08/04 01:35:14;;;;;;;6.05;4.20;;;;;;;30.32;41.02;98296.75;5075852;28;20044;-73
2023/08/04 01:37:39;;;;;;;5.60;3.80;;;;;;;30.29;40.64;98303.44;5093100;28;20028;-72
2023/08/04 01:40:06;;;;;;;4.90;4.10;;;;;;;30.28;40.85;98301.00;5092948;28;20466;-73
2023/08/04 01:42:31;;;;;;;4.65;4.00;;;;;;;30.28;40.81;98301.00;5092969;28;20051;-72
2023/08/04 01:44:57;;;;;;;4.55;4.15;;;;;;;30.25;40.85;98298.84;5092954;28;20149;-73
2023/08/04 01:47:22;;;;;;;6.35;4.28;;;;;;;30.22;40.60;98296.66;5093649;28;20060;-73
2023/08/04 01:49:48;;;;;;;5.78;4.00;;;;;;;30.22;40.84;98302.03;5093215;28;20513;-71
2023/08/04 01:52:13;;;;;;;5.22;4.22;;;;;;;30.21;40.80;98300.44;5092633;28;20116;-72
2023/08/04 01:54:39;;;;;;;6.38;4.35;;;;;;;30.22;40.76;98302.88;5110107;28;20032;-71
2023/08/04 01:57:04;;;;;;;5.28;4.13;;;;;;;30.20;40.80;98304.97;5093316;28;20482;-72
2023/08/04 01:59:30;;;;;;;4.18;3.72;;;;;;;30.21;40.47;98320.06;5092770;28;20027;-71
2023/08/04 02:01:55;;;;;;;7.80;4.30;;;;;;;30.19;40.48;98316.84;5093070;28;20387;-71
2023/08/04 02:04:21;;;;;;;5.25;4.00;;;;;;;30.19;40.68;98316.00;5093805;28;20506;-71
2023/08/04 02:06:46;;;;;;;6.20;4.43;;;;;;;30.17;40.84;98321.63;5075125;28;20054;-71
2023/08/04 02:09:13;;;;;;;5.57;4.03;;;;;;;30.13;40.69;98315.97;5091525;28;20052;-71
2023/08/04 02:11:39;;;;;;;4.90;3.90;;;;;;;30.14;40.41;98319.47;5092754;28;20027;-71
2023/08/04 02:14:04;;;;;;;4.90;4.15;;;;;;;30.12;40.36;98318.91;5075680;28;20020;-72
2023/08/04 02:16:30;;;;;;;4.32;3.78;;;;;;;30.11;40.91;98317.31;5108197;28;20093;-72
2023/08/04 02:19:06;;;;;;;6.28;4.07;;;;;;;30.08;40.44;98320.50;5089856;28;20398;-72
2023/08/04 02:21:32;;;;;;;6.25;4.53;;;;;;;30.09;40.53;98314.03;5089490;28;20051;-72
2023/08/04 02:23:57;;;;;;;8.38;4.13;;;;;;;30.07;40.50;98322.38;5075489;28;20483;-71
2023/08/04 02:26:23;;;;;;;5.88;4.13;;;;;;;30.05;40.87;98335.28;5075440;28;20070;-72
2023/08/04 02:28:51;;;;;;;4.35;3.95;;;;;;;30.04;40.69;98330.94;5092201;28;20414;-71
2023/08/04 02:31:17;;;;;;;4.88;4.00;;;;;;;29.99;40.57;98327.41;5075427;28;20483;-71
2023/08/04 02:33:43;;;;;;;5.03;4.20;;;;;;;30.00;40.39;98340.59;5059717;28;20396;-71
2023/08/04 02:36:10;;;;;;;6.18;4.20;;;;;;;29.98;40.51;98342.72;5088912;28;20035;-71
2023/08/04 02:38:35;;;;;;;6.30;3.90;;;;;;;29.97;40.54;98343.81;5055053;28;20044;-71
2023/08/04 02:41:04;;;;;;;4.75;4.07;;;;;;;29.97;40.78;98342.97;5089953;28;20031;-71
2023/08/04 02:43:30;;;;;;;4.47;3.83;;;;;;;29.97;40.73;98345.66;5092094;28;20476;-71
2023/08/04 02:45:55;;;;;;;4.45;4.00;;;;;;;29.93;40.71;98350.75;5091656;28;20036;-72
2023/08/04 02:48:21;;;;;;;9.25;4.25;;;;;;;29.92;40.29;98357.19;5091942;28;20059;-72
2023/08/04 02:50:47;;;;;;;4.43;3.95;;;;;;;29.90;40.78;98353.94;5075163;28;20410;-72
2023/08/04 02:53:13;;;;;;;6.60;4.20;;;;;;;29.90;40.72;98356.63;5092107;28;20089;-72
2023/08/04 02:55:39;;;;;;;5.00;4.28;;;;;;;29.85;40.42;98352.00;5091921;28;20044;-72
2023/08/04 02:58:04;;;;;;;5.80;4.25;;;;;;;29.85;40.67;98360.06;5074752;28;20036;-72
2023/08/04 03:00:30;;;;;;;5.25;3.95;;;;;;;29.84;40.45;98352.25;5074526;28;20040;-72
2023/08/04 03:02:56;;;;;;;5.88;4.00;;;;;;;29.86;40.47;98355.53;5091584;28;20134;-72
2023/08/04 03:05:21;;;;;;;5.45;4.50;;;;;;;29.85;40.68;98359.28;5068591;28;20488;-72
2023/08/04 03:07:47;;;;;;;4.95;4.03;;;;;;;29.84;40.47;98355.78;5054081;28;20074;-72
2023/08/04 03:10:12;;;;;;;7.93;4.28;;;;;;;29.84;40.66;98354.94;5038080;28;20032;-73
2023/08/04 03:12:38;;;;;;;4.97;3.97;;;;;;;29.81;40.41;98355.44;5037739;28;20037;-72
2023/08/04 03:15:04;;;;;;;4.20;3.80;;;;;;;29.83;40.36;98359.53;5054750;28;20036;-72
2023/08/04 03:17:30;;;;;;;6.70;4.00;;;;;;;29.83;40.37;98361.41;5038134;28;20059;-72
2023/08/04 03:19:55;;;;;;;7.47;4.28;;;;;;;29.86;40.22;98366.28;5071290;28;20036;-72
2023/08/04 03:22:21;;;;;;;5.95;4.38;;;;;;;29.93;40.23;98364.19;5071087;28;20158;-71
2023/08/04 03:24:46;;;;;;;8.13;4.00;;;;;;;29.97;40.39;98368.03;5054130;28;20044;-71
2023/08/04 03:27:12;;;;;;;6.47;4.38;;;;;;;29.97;40.24;98365.34;5054290;28;20032;-72
2023/08/04 03:29:37;;;;;;;5.10;3.85;;;;;;;29.99;39.91;98365.06;5072382;28;20486;-72
2023/08/04 03:32:03;;;;;;;4.97;4.18;;;;;;;29.97;40.02;98362.63;5054530;28;20020;-72
2023/08/04 03:34:29;;;;;;;5.43;4.07;;;;;;;30.04;40.09;98373.19;5070612;28;20068;-72
2023/08/04 03:36:54;;;;;;;5.22;4.20;;;;;;;30.05;39.88;98362.19;5053356;28;20067;-72
2023/08/04 03:39:20;;;;;;;7.57;4.22;;;;;;;30.17;39.54;98364.72;5037735;28;20035;-72
2023/08/04 03:41:45;;;;;;;6.13;4.25;;;;;;;30.64;38.72;98368.66;5054025;28;20086;-72
2023/08/04 03:44:11;;;;;;;6.30;4.47;;;;;;;31.08;37.98;98367.66;5054311;28;20032;-72
2023/08/04 03:46:36;;;;;;;5.57;4.00;;;;;;;31.49;36.68;98368.69;5054284;28;20032;-72
2023/08/04 03:49:02;;;;;;;3.97;3.53;;;;;;;31.97;35.86;98373.22;5054237;28;20489;-71
2023/08/04 03:51:27;;;;;;;5.82;3.90;;;;;;;32.37;35.27;98372.50;5072064;28;20040;-72
2023/08/04 03:53:53;;;;;;;5.93;3.72;;;;;;;32.75;34.12;98377.66;5037562;28;20032;-72
2023/08/04 03:56:18;;;;;;;8.52;4.00;;;;;;;33.10;33.46;98376.00;5053030;28;20066;-71
2023/08/04 03:58:44;;;;;;;5.68;3.90;;;;;;;33.46;33.15;98390.28;5070634;28;20044;-72
2023/08/04 04:01:09;;;;;;;4.40;3.75;;;;;;;33.85;32.50;98380.69;5071136;28;20035;-71
2023/08/04 04:03:35;;;;;;;5.07;3.75;;;;;;;34.19;31.66;98378.03;5071110;28;20456;-72
2023/08/04 04:06:00;;;;;;;9.10;3.63;;;;;;;34.59;31.26;98386.19;5053991;28;20060;-72
2023/08/04 04:08:26;;;;;;;6.03;3.50;;;;;;;34.99;30.82;98384.22;5071058;28;20094;-71
2023/08/04 04:10:51;;;;;;;4.95;3.40;;;;;;;35.44;29.72;98389.47;5070729;28;20033;-72
2023/08/04 04:13:17;;;;;;;6.40;3.67;;;;;;;35.82;29.15;98382.25;5054415;28;20025;-72
2023/08/04 04:15:42;;;;;;;10.02;3.58;;;;;;;36.23;28.71;98391.75;5053313;28;20041;-71
2023/08/04 04:18:08;;;;;;;8.20;3.60;;;;;;;36.63;28.10;98388.72;5054286;28;20112;-72
2023/08/04 04:20:33;;;;;;;5.68;3.53;;;;;;;36.98;27.63;98384.59;5070502;28;20048;-72
2023/08/04 04:22:59;;;;;;;7.78;3.70;;;;;;;37.38;27.10;98392.31;5070486;28;20021;-72
2023/08/04 04:25:24;;;;;;;8.18;3.55;;;;;;;37.70;26.63;98385.97;5053644;28;20051;-72
2023/08/04 04:27:50;;;;;;;5.82;3.42;;;;;;;38.09;26.13;98391.94;5070353;28;20047;-72
2023/08/04 04:30:15;;;;;;;5.07;3.40;;;;;;;38.41;25.84;98388.19;5053487;28;20066;-72
2023/08/04 04:32:41;;;;;;;5.40;3.50;;;;;;;38.82;25.31;98389.16;5072715;28;20036;-72
2023/08/04 04:35:06;;;;;;;5.80;3.70;;;;;;;39.12;24.76;98384.81;5057476;28;20471;-72
2023/08/04 04:37:32;;;;;;;3.65;3.00;;;;;;;39.47;24.57;98389.63;5073803;28;20089;-72
2023/08/04 04:39:57;;;;;;;4.55;3.05;;;;;;;39.84;23.94;98390.19;5075188;28;20044;-72
2023/08/04 04:42:23;;;;;;;7.43;3.20;;;;;;;40.16;23.65;98394.44;5073488;28;20028;-72
2023/08/04 04:44:48;;;;;;;7.43;3.20;;;;;;;40.59;23.15;98401.84;5056594;28;20094;-72
2023/08/04 04:47:14;;;;;;;4.70;3.30;;;;;;;40.93;22.98;98394.72;5040983;28;20533;-72
2023/08/04 04:49:40;;;;;;;5.43;3.20;;;;;;;41.30;22.12;98399.75;5057174;28;20040;-72
2023/08/04 04:52:06;;;;;;;5.40;3.00;;;;;;;41.70;21.83;98396.63;5057222;28;20020;-71
2023/08/04 04:54:31;;;;;;;7.70;3.40;;;;;;;42.12;21.69;98399.44;5056799;28;20028;-70
2023/08/04 04:56:57;;;;;;;4.80;3.85;;;;;;;42.52;21.00;98406.38;5073492;28;20035;-70
2023/08/04 04:59:22;;;;;;;5.10;3.27;;;;;;;42.90;21.04;98405.34;5074856;28;20121;-71
2023/08/04 05:01:48;;;;;;;5.47;3.27;;;;;;;43.19;20.09;98399.72;5074772;28;20024;-70
2023/08/04 05:04:13;;;;;;;3.43;2.93;;;;;;;43.47;20.19;98398.25;5039591;28;20369;-72
2023/08/04 05:06:39;;;;;;;6.50;3.00;;;;;;;43.89;20.13;98403.50;5040420;28;20079;-71
2023/08/04 05:09:04;;;;;;;4.43;2.83;;;;;;;44.23;19.37;98415.09;5073236;28;20427;-71
2023/08/04 05:11:30;;;;;;;10.50;3.00;;;;;;;44.57;19.05;98408.19;5040550;28;20036;-72
2023/08/04 05:13:56;;;;;;;6.93;2.93;;;;;;;44.94;18.59;98409.97;5057024;28;20028;-72
2023/08/04 05:16:22;;;;;;;5.38;2.97;;;;;;;45.32;18.61;98414.06;5073489;28;20039;-73
2023/08/04 05:18:47;;;;;;;6.33;2.83;;;;;;;45.59;18.35;98411.56;5040095;28;20484;-72
2023/08/04 05:21:13;;;;;;;5.77;2.93;;;;;;;45.89;18.17;98400.06;5056837;28;20032;-73
2023/08/04 05:23:38;;;;;;;4.73;2.90;;;;;;;46.14;17.61;98406.88;5073299;28;20039;-72
2023/08/04 05:26:04;;;;;;;3.03;2.53;;;;;;;46.40;17.83;98410.94;5040434;28;20451;-72
2023/08/04 05:28:32;;;;;;;7.13;2.67;;;;;;;46.64;17.29;98398.03;5039811;28;20483;-72
2023/08/04 05:30:59;;;;;;;5.75;2.70;;;;;;;46.86;17.41;98400.00;5056615;28;20024;-72
2023/08/04 05:33:25;;;;;;;4.60;2.58;;;;;;;47.14;16.72;98404.44;5056446;28;20036;-73
2023/08/04 05:35:51;;;;;;;8.27;2.67;;;;;;;47.24;17.01;98412.09;5090742;28;20024;-73
2023/08/04 05:38:16;;;;;;;3.53;2.53;;;;;;;47.41;16.61;98410.81;5092713;28;20412;-72
2023/08/04 05:40:44;;;;;;;7.97;2.60;;;;;;;47.61;16.53;98419.00;5092594;28;20059;-71
2023/08/04 05:43:10;;;;;;;10.32;2.60;;;;;;;47.74;16.98;98416.84;5091739;28;20069;-70
2023/08/04 05:45:37;;;;;;;10.88;2.67;;;;;;;48.17;16.16;98417.41;5064010;28;20074;-71
2023/08/04 05:48:03;;;;;;;6.70;2.40;;;;;;;48.45;15.66;98414.22;5080623;28;20063;-71
2023/08/04 05:50:28;;;;;;;;;;;;;;;48.56;15.83;98416.31;5069207;28;20238;-70
2023/08/04 05:52:54;;;;;;;6.33;2.27;;;;;;;48.86;15.80;98427.31;5078202;28;19927;-70
2023/08/04 05:55:20;;;;;;;5.60;2.20;;;;;;;49.04;14.71;98417.19;5085992;28;20290;-70
2023/08/04 05:57:45;;;;;;;5.57;2.63;;;;;;;49.24;15.00;98420.53;5065736;28;20024;-70
2023/08/04 06:00:11;;;;;;;7.37;2.53;;;;;;;49.34;14.84;98429.31;5075553;28;20472;-69
2023/08/04 06:02:37;;;;;;;5.65;2.35;;;;;;;49.43;14.23;98419.47;5070029;28;20673;-72
2023/08/04 06:05:02;;;;;;;10.60;2.30;;;;;;;49.51;14.07;98417.56;5091808;28;20052;-71
2023/08/04 06:07:28;;;;;;;11.40;2.90;;;;;;;49.71;14.39;98431.97;5091397;28;20282;-70
2023/08/04 06:09:53;;;;;;;4.17;2.30;;;;;;;49.78;14.38;98426.44;5092029;28;20744;-74
2023/08/04 06:12:19;;;;;;;6.25;2.58;;;;;;;49.89;13.77;98432.06;5109414;28;20107;-71
2023/08/04 06:14:45;;;;;;;4.07;2.50;;;;;;;49.96;14.16;98431.31;5092285;28;20413;-73
2023/08/04 06:17:10;;;;;;;;;;;;;;;49.78;13.72;98418.09;5075016;28;20676;-72
2023/08/04 06:19:39;;;;;;;10.00;2.70;;;;;;;50.05;14.03;98420.63;5090988;28;19912;-72
2023/08/04 06:22:04;;;;;;;5.10;2.40;;;;;;;50.16;13.75;98420.69;5073480;28;20032;-73
2023/08/04 06:24:30;;;;;;;7.80;2.50;;;;;;;50.20;13.43;98417.91;5072941;28;20059;-73
2023/08/04 06:26:56;;;;;;;5.20;2.40;;;;;;;50.25;13.43;98423.13;5058195;28;20498;-73
2023/08/04 06:29:21;;;;;;;5.68;2.13;;;;;;;50.28;13.63;98430.69;5091751;28;20028;-74
2023/08/04 06:31:46;;;;;;;5.30;2.27;;;;;;;50.25;12.93;98420.38;5088039;28;20033;-74
2023/08/04 06:34:12;;;;;;;6.00;2.50;;;;;;;50.19;13.20;98425.47;5071931;28;20708;-73
2023/08/04 06:36:38;;;;;;;7.22;2.42;;;;;;;50.19;13.40;98417.13;5071387;28;20270;-74
2023/08/04 06:39:04;;;;;;;8.95;2.30;;;;;;;50.11;13.55;98412.75;5083408;28;20032;-71
2023/08/04 06:41:29;;;;;;;5.32;2.35;;;;;;;50.06;13.01;98413.13;5056973;28;20036;-73
2023/08/04 06:43:55;;;;;;;9.80;2.37;;;;;;;50.00;13.47;98412.69;5075039;28;20032;-71
2023/08/04 06:46:21;;;;;;;6.60;2.38;;;;;;;50.02;12.90;98415.88;5092115;28;20035;-73
2023/08/04 06:48:46;;;;;;;7.70;2.42;;;;;;;50.04;13.15;98419.06;5054112;28;20040;-71
2023/08/04 06:51:12;;;;;;;9.87;2.70;;;;;;;50.02;13.25;98415.88;5069644;28;20040;-71
2023/08/04 06:53:37;;;;;;;5.00;2.30;;;;;;;49.96;13.54;98406.31;5070614;28;20301;-72
2023/08/04 06:56:03;;;;;;;6.87;2.10;;;;;;;49.95;13.26;98407.53;5092223;28;20265;-72
2023/08/04 06:58:28;;;;;;;6.30;2.35;;;;;;;49.90;13.00;98417.03;5072554;28;20550;-71
2023/08/04 07:00:54;;;;;;;7.27;2.87;;;;;;;49.77;13.47;98402.66;5090514;28;20043;-72
2023/08/04 07:03:19;;;;;;;5.13;2.37;;;;;;;49.74;13.25;98402.63;5090715;28;20282;-72
2023/08/04 07:05:45;;;;;;;6.40;2.37;;;;;;;49.67;13.63;98402.63;5071202;28;20279;-72
2023/08/04 07:08:11;;;;;;;7.17;2.47;;;;;;;49.60;12.89;98403.38;5108173;28;20410;-72
2023/08/04 07:10:37;;;;;;;3.30;2.30;;;;;;;49.57;12.96;98401.38;5091059;28;20056;-72
2023/08/04 07:13:03;;;;;;;5.97;2.20;;;;;;;49.52;12.72;98401.72;5088425;28;20075;-72
2023/08/04 07:15:28;;;;;;;3.60;2.47;;;;;;;49.55;12.97;98398.16;5106072;28;20713;-74
2023/08/04 07:17:54;;;;;;;2.70;2.20;;;;;;;49.54;12.51;98408.47;5050579;28;20035;-73
2023/08/04 07:20:21;;;;;;;8.83;2.50;;;;;;;49.50;12.98;98401.31;5058488;28;20036;-73
2023/08/04 07:22:46;;;;;;;7.85;2.70;;;;;;;49.43;12.41;98400.06;5056994;28;20789;-74
2023/08/04 07:25:12;;;;;;;5.90;2.50;;;;;;;49.41;12.59;98407.97;5101802;28;20031;-73
2023/08/04 07:27:37;;;;;;;7.90;2.40;;;;;;;49.38;12.49;98403.19;5072935;28;20039;-73
2023/08/04 07:30:04;;;;;;;5.77;2.27;;;;;;;49.34;12.63;98402.38;5073687;28;20035;-73
2023/08/04 07:32:29;;;;;;;5.38;2.03;;;;;;;49.33;12.27;98406.34;5072089;28;20279;-78
2023/08/04 07:34:55;;;;;;;4.43;2.20;;;;;;;49.28;12.74;98403.94;5106989;28;20423;-75
2023/08/04 07:37:20;;;;;;;4.93;2.40;;;;;;;49.30;12.97;98418.19;5073444;28;20040;-75
2023/08/04 07:39:46;;;;;;;7.50;2.23;;;;;;;49.28;12.40;98412.25;5086904;28;20318;-86
2023/08/04 07:42:11;;;;;;;3.97;2.47;;;;;;;49.25;12.30;98401.94;5056987;28;20028;-75
2023/08/04 07:44:37;;;;;;;7.20;2.27;;;;;;;49.18;12.68;98399.88;5105149;28;20024;-75
2023/08/04 07:47:02;;;;;;;4.43;2.20;;;;;;;49.16;13.13;98407.00;5071859;28;20039;-77
2023/08/04 07:49:28;;;;;;;4.22;2.30;;;;;;;49.11;12.37;98410.09;5052758;28;20357;-76
2023/08/04 07:51:54;;;;;;;7.63;2.30;;;;;;;49.08;12.87;98412.44;5072897;28;20152;-77
2023/08/04 07:54:20;;;;;;;10.85;2.40;;;;;;;49.03;12.42;98412.03;5089094;28;20078;-75
2023/08/04 07:56:45;;;;;;;4.13;2.42;;;;;;;48.99;12.68;98409.22;5070880;28;20055;-74
2023/08/04 07:59:11;;;;;;;7.47;2.43;;;;;;;48.92;12.83;98403.63;5089039;28;20475;-73
2023/08/04 08:01:36;;;;;;;4.20;2.00;;;;;;;48.87;12.88;98409.53;5072120;28;20457;-74
2023/08/04 08:04:02;;;;;;;3.47;2.20;;;;;;;48.85;12.92;98406.31;5086759;28;20051;-74
2023/08/04 08:06:28;;;;;;;5.43;2.10;;;;;;;48.82;13.00;98412.63;5089963;28;20068;-74
2023/08/04 08:08:53;;;;;;;6.10;2.30;;;;;;;48.77;13.21;98402.66;5095166;28;20056;-75
2023/08/04 08:11:19;;;;;;;6.13;2.23;;;;;;;48.75;13.38;98410.56;5059960;28;20039;-74
2023/08/04 08:13:44;;;;;;;6.73;2.20;;;;;;;48.66;12.72;98405.31;5076633;28;20266;-75
2023/08/04 08:16:11;;;;;;;3.37;2.17;;;;;;;48.57;13.10;98413.16;5074923;28;20117;-74
2023/08/04 08:18:37;;;;;;;4.43;2.22;;;;;;;48.46;12.58;98403.91;5074328;28;20059;-76
2023/08/04 08:21:06;;;;;;;8.18;2.35;;;;;;;48.35;12.73;98401.03;5073072;28;20056;-74
2023/08/04 08:23:32;;;;;;;5.63;2.55;;;;;;;48.29;12.90;98397.00;5076642;28;20036;-75
2023/08/04 08:25:57;;;;;;;4.85;2.33;;;;;;;48.25;13.02;98404.47;5075271;28;20059;-76
2023/08/04 08:28:23;;;;;;;5.33;2.10;;;;;;;48.21;13.15;98401.66;5110114;28;20390;-75
2023/08/04 08:30:48;;;;;;;5.10;2.10;;;;;;;48.13;13.21;98406.31;5109350;28;20230;-77
2023/08/04 08:33:14;;;;;;;4.60;2.47;;;;;;;48.03;13.04;98406.94;5075153;28;20090;-75
2023/08/04 08:35:39;;;;;;;3.00;2.17;;;;;;;47.93;12.93;98399.31;5059643;28;20081;-76
2023/08/04 08:38:05;;;;;;;6.77;2.37;;;;;;;47.82;13.01;98404.69;5107448;28;20040;-76
2023/08/04 08:40:31;;;;;;;4.90;2.57;;;;;;;47.73;13.06;98401.41;5109318;28;20028;-75
2023/08/04 08:42:57;;;;;;;5.17;2.33;;;;;;;47.59;13.27;98399.25;5092837;28;20020;-76
2023/08/04 08:45:26;;;;;;;8.82;2.53;;;;;;;47.49;13.48;98403.41;5087457;28;20040;-76
2023/08/04 08:47:52;;;;;;;9.13;2.63;;;;;;;47.39;12.89;98398.53;5072502;28;20028;-75
2023/08/04 08:50:17;;;;;;;3.40;2.50;;;;;;;47.32;13.61;98398.41;5070197;28;20036;-77
2023/08/04 08:52:43;;;;;;;6.13;2.93;;;;;;;47.24;13.77;98403.00;5076213;28;20024;-77
2023/08/04 08:55:08;;;;;;;4.70;2.57;;;;;;;47.12;13.44;98399.28;5076475;28;20043;-76
2023/08/04 08:57:34;;;;;;;7.13;3.00;;;;;;;47.06;14.06;98392.47;5093394;28;20031;-76
2023/08/04 09:00:00;;;;;;;7.30;2.78;;;;;;;47.04;13.91;98405.84;5093433;28;20077;-76
2023/08/04 09:02:26;;;;;;;5.28;2.55;;;;;;;46.93;14.27;98399.38;5109138;28;20032;-76
2023/08/04 09:04:52;;;;;;;7.13;2.60;;;;;;;46.80;14.04;98390.44;5076140;28;20055;-76
2023/08/04 09:07:17;;;;;;;3.42;2.55;;;;;;;46.73;14.16;98393.88;5076702;28;20119;-76
2023/08/04 09:09:43;;;;;;;5.47;2.70;;;;;;;46.64;14.01;98387.78;5076345;28;20043;-76
2023/08/04 09:12:09;;;;;;;3.33;2.53;;;;;;;46.55;14.62;98384.47;5089820;28;20029;-76
2023/08/04 09:14:53;;;;;;;8.23;2.60;;;;;;;46.41;14.39;98391.28;5056084;28;20029;-76
2023/08/04 09:17:28;;;;;;;5.95;2.75;;;;;;;46.29;15.11;98379.59;5040184;28;20033;-75
2023/08/04 09:19:53;;;;;;;4.85;3.00;;;;;;;46.17;15.47;98370.31;5074603;28;20032;-84
2023/08/04 09:22:18;;;;;;;6.93;3.00;;;;;;;46.10;16.21;98366.59;5039653;28;20067;-77
2023/08/04 09:25:00;;;;;;;8.43;2.43;;;;;;;45.96;16.09;98373.44;5072729;28;20103;-77
2023/08/04 09:27:34;;;;;;;6.03;2.80;;;;;;;45.86;16.38;98369.28;5070421;28;20040;-75
2023/08/04 09:30:04;;;;;;;4.10;2.53;;;;;;;45.75;15.96;98362.69;5072618;28;20032;-76
2023/08/04 09:32:29;;;;;;;4.05;2.58;;;;;;;45.63;16.30;98358.13;5063560;28;20185;-77
2023/08/04 09:35:13;;;;;;;6.83;3.10;;;;;;;45.48;16.21;98362.53;5074684;28;20024;-76
2023/08/04 09:37:39;;;;;;;9.00;2.35;;;;;;;45.43;16.24;98353.75;5076258;28;20028;-76
2023/08/04 09:40:15;;;;;;;3.83;2.80;;;;;;;45.32;16.47;98350.69;5075136;28;20047;-76
2023/08/04 09:42:44;;;;;;;6.22;2.95;;;;;;;45.26;16.73;98358.47;5075398;28;20096;-79
2023/08/04 09:45:14;;;;;;;5.95;2.85;;;;;;;45.10;16.53;98352.94;5059853;28;20035;-77
2023/08/04 09:47:40;;;;;;;3.95;2.60;;;;;;;45.04;16.19;98348.88;5075956;28;20031;-77
2023/08/04 09:50:09;;;;;;;5.67;2.70;;;;;;;44.87;16.04;98338.22;5074985;28;20478;-79
2023/08/04 09:52:35;;;;;;;4.20;3.00;;;;;;;44.76;16.44;98335.97;5057842;28;20082;-75
2023/08/04 09:55:01;;;;;;;4.60;2.83;;;;;;;44.64;16.45;98343.53;5058782;28;20055;-74
2023/08/04 09:57:26;;;;;;;5.07;3.03;;;;;;;44.57;16.42;98335.84;5092396;28;20054;-75
2023/08/04 09:59:52;;;;;;;4.37;2.90;;;;;;;44.41;16.66;98342.13;5058684;28;20060;-76
2023/08/04 10:02:20;;;;;;;4.50;3.00;;;;;;;44.30;16.67;98338.28;5079115;28;20028;-75
2023/08/04 10:04:50;;;;;;;4.47;3.40;;;;;;;44.12;16.53;98337.75;5076397;28;20064;-77
2023/08/04 10:07:17;;;;;;;4.40;3.17;;;;;;;43.96;16.71;98334.16;5075774;28;20124;-74
2023/08/04 10:09:43;;;;;;;4.10;3.08;;;;;;;43.80;16.95;98331.34;5075562;28;20478;-76
2023/08/04 10:12:09;;;;;;;5.68;3.20;;;;;;;43.70;17.08;98329.88;5108168;28;20047;-75
2023/08/04 10:14:34;;;;;;;5.10;3.07;;;;;;;43.54;17.32;98327.06;5074605;28;20123;-76
2023/08/04 10:17:00;;;;;;;5.30;3.10;;;;;;;43.48;17.13;98342.16;5075184;28;20028;-75
2023/08/04 10:19:25;;;;;;;5.20;3.30;;;;;;;43.40;17.13;98329.34;5058486;28;20567;-75
2023/08/04 10:21:51;;;;;;;5.40;3.43;;;;;;;43.22;17.58;98318.56;5057999;28;20039;-77
2023/08/04 10:24:20;;;;;;;4.47;3.20;;;;;;;43.05;17.59;98335.28;5075250;28;20469;-76
2023/08/04 10:26:52;;;;;;;5.93;3.25;;;;;;;42.88;17.73;98323.34;5075257;28;20024;-76
2023/08/04 10:29:18;;;;;;;4.70;3.30;;;;;;;42.69;17.79;98320.38;5074470;28;20410;-74
2023/08/04 10:31:56;;;;;;;4.00;3.13;;;;;;;42.58;17.79;98330.97;5074601;28;20111;-74
2023/08/04 10:34:28;;;;;;;7.75;3.25;;;;;;;42.56;17.79;98319.53;5074601;28;20024;-75
2023/08/04 10:37:10;;;;;;;8.85;3.50;;;;;;;42.47;18.16;98325.88;5091415;28;20028;-76
2023/08/04 10:39:37;;;;;;;8.77;3.30;;;;;;;42.39;17.85;98320.50;5074846;28;20035;-76
2023/08/04 10:42:20;;;;;;;6.60;3.67;;;;;;;42.28;18.07;98306.41;5074248;28;20491;-75
2023/08/04 10:45:05;;;;;;;7.30;3.70;;;;;;;42.08;18.29;98310.75;5090931;28;20028;-76
2023/08/04 10:47:46;;;;;;;9.57;4.20;;;;;;;42.01;18.26;98310.53;5091764;28;20032;-76
2023/08/04 10:50:12;;;;;;;6.45;3.72;;;;;;;41.93;18.13;98310.25;5073986;28;20035;-74
2023/08/04 10:52:38;;;;;;;6.40;3.87;;;;;;;41.82;18.47;98305.53;5091052;28;20028;-75
2023/08/04 10:55:06;;;;;;;5.07;3.60;;;;;;;41.75;18.66;98303.28;5074072;28;20035;-76
2023/08/04 10:57:32;;;;;;;6.50;3.28;;;;;;;41.64;18.48;98300.16;5067564;28;20372;-75
2023/08/04 10:59:57;;;;;;;4.68;3.65;;;;;;;41.54;18.41;98301.31;5054973;28;20418;-76
2023/08/04 11:02:23;;;;;;;6.80;4.00;;;;;;;41.46;18.50;98296.72;5056979;28;20032;-74
2023/08/04 11:04:52;;;;;;;7.17;4.00;;;;;;;41.44;18.63;98299.00;5090268;28;20082;-76
2023/08/04 11:07:18;;;;;;;5.00;3.88;;;;;;;41.35;18.57;98296.31;5090942;28;20115;-75
2023/08/04 11:09:44;;;;;;;6.25;3.83;;;;;;;41.33;18.33;98301.31;5090995;28;20067;-76
2023/08/04 11:12:10;;;;;;;7.88;4.35;;;;;;;41.18;18.84;98299.94;5091842;28;20459;-77
2023/08/04 11:14:36;;;;;;;7.20;3.90;;;;;;;41.03;18.76;98297.75;5057281;28;20024;-77
2023/08/04 11:17:02;;;;;;;4.82;3.78;;;;;;;40.92;18.89;98293.78;5090664;28;20071;-76
2023/08/04 11:19:32;;;;;;;7.15;3.95;;;;;;;40.85;18.86;98299.78;5090782;28;20123;-78
2023/08/04 11:22:07;;;;;;;8.93;3.92;;;;;;;40.75;19.39;98291.91;5073288;28;20119;-76
2023/08/04 11:24:32;;;;;;;6.85;4.28;;;;;;;40.67;19.24;98291.59;5073659;28;20039;-76
2023/08/04 11:26:58;;;;;;;6.93;4.10;;;;;;;40.64;19.33;98281.31;5073671;28;20032;-79
2023/08/04 11:29:26;;;;;;;7.53;4.38;;;;;;;40.54;19.24;98280.88;5057439;28;20085;-78
2023/08/04 11:31:53;;;;;;;11.23;4.60;;;;;;;40.47;19.50;98284.09;5073805;28;20109;-78